Time;durP1;ratioP1;P1;durP2;ratioP2;P2;SDS_P1;SDS_P2;PMS_P1;PMS_P2;Temp;Humidity;BMP_temperature;BMP_pressure;BME280_temperature;BME280_humidity;BME280_pressure;Samples;Min_cycle;Max_cycle;Signal;HPM_P1;HPM_P2
2022/05/01 00:01:17;;;;;;;14.33;7.87;;;9.20;97.30;;;;;;5034494;28;20176;-79
2022/05/01 00:03:43;;;;;;;15.40;8.10;;;9.10;97.30;;;;;;5032486;28;20188;-78
2022/05/01 00:06:10;;;;;;;15.80;7.77;;;9.10;97.30;;;;;;5032454;28;20812;-79
2022/05/01 00:08:44;;;;;;;13.87;7.20;;;9.10;97.30;;;;;;5032325;28;20184;-79
2022/05/01 00:11:12;;;;;;;14.00;6.90;;;9.00;97.30;;;;;;5033097;28;20945;-79
2022/05/01 00:13:39;;;;;;;17.47;8.03;;;9.00;97.30;;;;;;5032148;28;20483;-78
2022/05/01 00:16:05;;;;;;;13.37;7.80;;;8.90;97.30;;;;;;5032635;28;20439;-81
2022/05/01 00:18:30;;;;;;;15.57;8.10;;;8.90;97.30;;;;;;5032379;28;20818;-80
2022/05/01 00:20:56;;;;;;;14.07;6.80;;;8.80;97.30;;;;;;5032695;28;20181;-78
2022/05/01 00:23:21;;;;;;;24.63;8.27;;;8.80;97.30;;;;;;5033559;28;20727;-79
2022/05/01 00:25:47;;;;;;;16.83;7.60;;;8.80;97.30;;;;;;5032236;28;20338;-78
2022/05/01 00:28:14;;;;;;;16.43;7.70;;;8.80;97.30;;;;;;5031665;28;20231;-79
2022/05/01 00:30:40;;;;;;;12.63;6.97;;;8.80;97.30;;;;;;5032359;28;20188;-78
2022/05/01 00:38:36;;;;;;;15.23;7.70;;;8.70;97.30;;;;;;5013571;28;20515;-79
2022/05/01 00:41:04;;;;;;;19.70;7.70;;;8.70;97.30;;;;;;5012046;28;20405;-78
2022/05/01 00:43:31;;;;;;;14.23;7.77;;;8.70;97.30;;;;;;5012551;28;20416;-78
2022/05/01 00:45:56;;;;;;;15.70;9.13;;;8.60;97.30;;;;;;5011990;28;20442;-78
2022/05/01 00:48:22;;;;;;;18.13;7.70;;;8.60;97.30;;;;;;5012549;28;20416;-78
2022/05/01 00:50:48;;;;;;;22.43;7.43;;;8.60;97.30;;;;;;5012436;28;20203;-78
2022/05/01 00:53:13;;;;;;;18.40;9.57;;;8.60;97.30;;;;;;5011482;28;20236;-80
2022/05/01 00:55:39;;;;;;;17.40;7.90;;;8.50;97.30;;;;;;5011741;28;20248;-78
2022/05/01 00:58:06;;;;;;;15.87;7.53;;;8.50;97.30;;;;;;5011477;28;20174;-79
2022/05/01 01:00:36;;;;;;;14.50;7.13;;;8.50;97.30;;;;;;5012928;28;20426;-79
2022/05/01 01:03:01;;;;;;;14.70;7.23;;;8.40;97.30;;;;;;5013386;28;20439;-79
2022/05/01 01:05:27;;;;;;;11.30;6.80;;;8.40;97.30;;;;;;5011718;28;20432;-78
2022/05/01 01:07:53;;;;;;;13.20;7.00;;;8.40;97.30;;;;;;5011922;28;20177;-79
2022/05/01 01:10:19;;;;;;;15.30;7.57;;;8.40;97.30;;;;;;5011935;28;20427;-78
2022/05/01 01:12:54;;;;;;;17.03;7.40;;;8.40;97.30;;;;;;5011395;28;20648;-79
2022/05/01 01:15:25;;;;;;;13.97;6.60;;;8.30;97.30;;;;;;5011873;28;20462;-78
2022/05/01 01:17:54;;;;;;;13.40;7.47;;;8.30;97.30;;;;;;5013096;28;20451;-78
2022/05/01 01:20:25;;;;;;;19.87;7.57;;;8.30;97.30;;;;;;5012340;28;20443;-79
2022/05/01 01:22:53;;;;;;;13.60;7.37;;;8.30;97.30;;;;;;5011157;28;20503;-79
2022/05/01 01:25:22;;;;;;;12.80;7.43;;;8.30;97.30;;;;;;5013059;28;20941;-78
2022/05/01 01:27:50;;;;;;;11.57;6.60;;;8.30;97.30;;;;;;5011309;28;20914;-78
2022/05/01 01:33:00;;;;;;;10.50;6.27;;;8.30;97.30;;;;;;5012572;28;20399;-79
2022/05/01 01:35:27;;;;;;;15.20;7.37;;;8.20;97.30;;;;;;5010629;28;20440;-78
2022/05/01 01:37:55;;;;;;;10.50;6.50;;;8.20;97.30;;;;;;5010676;28;20179;-79
2022/05/01 01:40:23;;;;;;;21.10;7.70;;;8.20;97.30;;;;;;5011136;28;20416;-79
2022/05/01 01:42:50;;;;;;;13.93;7.60;;;8.20;97.30;;;;;;5010328;28;20507;-78
2022/05/01 01:45:17;;;;;;;14.07;8.50;;;8.20;97.30;;;;;;5010713;28;20531;-78
2022/05/01 01:47:44;;;;;;;13.60;7.50;;;8.10;97.30;;;;;;5010834;28;20416;-79
2022/05/01 01:50:12;;;;;;;10.37;6.33;;;8.10;97.30;;;;;;5011150;28;20428;-78
2022/05/01 01:52:38;;;;;;;14.27;7.30;;;8.10;97.30;;;;;;5010972;28;20416;-78
2022/05/01 01:55:04;;;;;;;13.20;7.40;;;8.00;97.30;;;;;;5012626;28;20455;-79
2022/05/01 01:57:29;;;;;;;14.67;7.07;;;8.00;97.30;;;;;;5011156;28;20420;-80
2022/05/01 01:59:55;;;;;;;11.43;6.40;;;8.00;97.30;;;;;;5010666;28;20420;-78
2022/05/01 02:02:21;;;;;;;14.47;7.50;;;8.00;97.30;;;;;;5010765;28;20428;-78
2022/05/01 02:04:46;;;;;;;10.43;6.13;;;7.90;97.30;;;;;;5010181;28;20201;-78
2022/05/01 02:07:12;;;;;;;15.23;7.00;;;7.90;97.30;;;;;;5010243;28;20193;-80
2022/05/01 02:09:38;;;;;;;12.97;6.47;;;7.90;97.30;;;;;;5009957;28;20185;-77
2022/05/01 02:12:08;;;;;;;14.73;7.27;;;7.80;97.30;;;;;;5010555;28;20595;-78
2022/05/01 02:14:35;;;;;;;14.33;7.10;;;7.80;97.30;;;;;;5010219;28;20511;-79
2022/05/01 02:17:02;;;;;;;17.90;7.70;;;7.80;97.30;;;;;;5010265;28;20439;-78
2022/05/01 02:19:29;;;;;;;13.20;7.43;;;7.70;97.30;;;;;;5010133;28;20416;-78
2022/05/01 02:21:55;;;;;;;14.00;6.90;;;7.70;97.30;;;;;;5010150;28;20425;-79
2022/05/01 02:24:20;;;;;;;10.93;6.60;;;7.70;97.30;;;;;;5010420;28;20933;-78
2022/05/01 02:26:47;;;;;;;11.43;6.80;;;7.60;97.30;;;;;;5009751;28;20201;-77
2022/05/01 02:29:13;;;;;;;10.67;6.40;;;7.60;97.30;;;;;;5009939;28;20430;-78
2022/05/01 02:31:40;;;;;;;11.07;6.33;;;7.50;97.30;;;;;;5010518;28;20424;-78
2022/05/01 02:34:06;;;;;;;20.60;7.00;;;7.40;97.30;;;;;;5011295;28;20204;-79
2022/05/01 02:36:32;;;;;;;17.80;6.47;;;7.30;97.30;;;;;;5015102;28;20427;-78
2022/05/01 02:38:57;;;;;;;15.03;6.17;;;7.30;97.30;;;;;;5031910;28;20180;-79
2022/05/01 02:41:23;;;;;;;9.50;6.07;;;7.20;97.30;;;;;;5030509;28;20556;-78
2022/05/01 02:43:48;;;;;;;12.53;6.57;;;7.20;97.30;;;;;;5030844;28;20215;-80
2022/05/01 02:46:15;;;;;;;14.60;6.40;;;7.20;97.30;;;;;;5030395;28;20212;-78
2022/05/01 02:48:41;;;;;;;9.10;5.43;;;7.20;97.30;;;;;;5031426;28;20586;-78
2022/05/01 02:51:07;;;;;;;12.90;6.97;;;7.20;97.30;;;;;;5030186;28;20521;-78
2022/05/01 02:53:33;;;;;;;13.27;6.60;;;7.20;97.30;;;;;;5029705;28;20491;-78
2022/05/01 02:56:00;;;;;;;12.37;6.57;;;7.20;97.30;;;;;;5029919;28;20219;-78
2022/05/01 02:58:27;;;;;;;10.77;5.80;;;7.10;97.30;;;;;;5030164;28;20430;-79
2022/05/01 03:00:53;;;;;;;13.73;6.77;;;7.10;97.30;;;;;;5029916;28;20411;-78
2022/05/01 03:03:18;;;;;;;13.37;6.00;;;7.00;97.30;;;;;;5031122;28;20416;-78
2022/05/01 03:05:44;;;;;;;15.00;5.80;;;7.00;97.30;;;;;;5029475;28;20465;-79
2022/05/01 03:08:12;;;;;;;10.40;6.23;;;6.90;97.30;;;;;;5030018;28;20274;-79
2022/05/01 03:10:38;;;;;;;14.10;5.87;;;6.80;97.30;;;;;;5029789;28;20789;-78
2022/05/01 03:13:04;;;;;;;10.27;5.97;;;6.80;97.30;;;;;;5029611;28;20482;-78
2022/05/01 03:15:29;;;;;;;12.80;6.30;;;6.80;97.30;;;;;;5030902;28;20956;-77
2022/05/01 03:23:23;;;;;;;10.50;5.80;;;6.80;97.30;;;;;;5034955;28;20441;-79
2022/05/01 03:25:49;;;;;;;8.53;5.53;;;6.80;97.30;;;;;;5033925;28;20936;-78
2022/05/01 03:28:15;;;;;;;10.60;5.80;;;6.80;97.30;;;;;;5033287;28;20192;-79
2022/05/01 03:30:40;;;;;;;11.70;5.50;;;6.80;97.30;;;;;;5032729;28;20430;-77
2022/05/01 03:33:07;;;;;;;13.10;6.80;;;6.80;97.30;;;;;;5032487;28;20600;-77
2022/05/01 03:35:36;;;;;;;12.03;5.37;;;6.80;97.30;;;;;;5032038;28;20242;-78
2022/05/01 03:38:08;;;;;;;13.07;5.50;;;6.80;97.30;;;;;;5016147;28;20424;-79
2022/05/01 03:40:37;;;;;;;10.07;5.57;;;6.90;97.30;;;;;;5012061;28;20416;-79
2022/05/01 03:43:04;;;;;;;12.70;5.70;;;6.90;97.30;;;;;;5012289;28;20420;-78
2022/05/01 03:45:30;;;;;;;9.10;5.57;;;6.90;97.30;;;;;;5011738;28;20448;-78
2022/05/01 03:47:56;;;;;;;14.07;5.80;;;6.90;97.30;;;;;;5012307;28;20938;-78
2022/05/01 03:50:22;;;;;;;8.67;5.50;;;6.90;97.30;;;;;;5011995;28;20474;-78
2022/05/01 03:52:48;;;;;;;8.60;5.13;;;6.90;97.30;;;;;;5011798;28;20487;-78
2022/05/01 03:55:13;;;;;;;13.63;5.70;;;7.00;97.30;;;;;;5012038;28;20487;-77
2022/05/01 03:57:39;;;;;;;12.10;5.60;;;7.00;97.30;;;;;;5011878;28;20658;-78
2022/05/01 04:00:06;;;;;;;16.63;6.40;;;7.00;97.30;;;;;;5011753;28;20177;-78
2022/05/01 04:02:41;;;;;;;13.60;6.60;;;7.10;97.30;;;;;;5012893;28;20404;-78
2022/05/01 04:05:07;;;;;;;10.47;5.10;;;7.10;97.30;;;;;;5011775;28;20443;-77
2022/05/01 04:07:32;;;;;;;9.80;4.90;;;7.20;97.30;;;;;;5011514;28;20431;-77
2022/05/01 04:09:58;;;;;;;8.80;5.00;;;7.20;97.30;;;;;;5011561;28;20420;-77
2022/05/01 04:12:23;;;;;;;11.73;5.30;;;7.20;97.30;;;;;;5011458;28;20185;-78
2022/05/01 04:14:49;;;;;;;10.03;5.10;;;7.20;97.30;;;;;;5011455;28;20295;-77
2022/05/01 04:17:14;;;;;;;12.43;5.70;;;7.30;97.30;;;;;;5011304;28;20185;-78
2022/05/01 04:19:40;;;;;;;10.93;5.20;;;7.30;97.30;;;;;;5012617;28;20215;-77
2022/05/01 04:22:05;;;;;;;9.90;5.20;;;7.30;97.30;;;;;;5011411;28;20208;-78
2022/05/01 04:24:31;;;;;;;8.67;5.37;;;7.30;97.30;;;;;;5013044;28;20201;-78
2022/05/01 04:26:56;;;;;;;10.10;5.23;;;7.30;97.30;;;;;;5011231;28;20640;-77
2022/05/01 04:29:37;;;;;;;10.57;4.90;;;7.40;97.30;;;;;;5013031;28;20205;-77
2022/05/01 04:32:05;;;;;;;7.17;4.67;;;7.40;97.30;;;;;;5012388;28;20655;-78
2022/05/01 04:34:31;;;;;;;7.03;4.50;;;7.50;97.30;;;;;;5012011;28;20635;-77
2022/05/01 04:36:58;;;;;;;11.53;6.10;;;7.60;97.30;;;;;;5019133;28;20501;-77
2022/05/01 04:39:26;;;;;;;9.00;5.03;;;7.70;97.30;;;;;;5030752;28;20450;-78
2022/05/01 04:41:53;;;;;;;9.27;5.23;;;7.80;97.30;;;;;;5030814;28;20800;-79
2022/05/01 04:44:19;;;;;;;8.70;4.47;;;7.90;97.30;;;;;;5030280;28;20423;-78
2022/05/01 04:46:49;;;;;;;10.57;5.70;;;8.00;97.30;;;;;;5031946;28;20422;-78
2022/05/01 04:49:18;;;;;;;10.27;4.97;;;8.20;97.30;;;;;;5030224;28;20427;-78
2022/05/01 04:51:44;;;;;;;19.40;5.27;;;8.20;97.30;;;;;;5030236;28;20462;-78
2022/05/01 04:54:09;;;;;;;9.00;5.30;;;8.40;97.30;;;;;;5030211;28;20976;-77
2022/05/01 04:59:19;;;;;;;9.23;5.00;;;8.50;97.30;;;;;;5032046;28;20179;-79
2022/05/01 05:01:45;;;;;;;13.83;5.53;;;8.60;97.30;;;;;;5031614;28;20535;-78
2022/05/01 05:04:10;;;;;;;9.63;4.83;;;8.70;97.30;;;;;;5029964;28;20180;-78
2022/05/01 05:06:36;;;;;;;14.90;5.37;;;8.90;97.30;;;;;;5030300;28;20234;-78
2022/05/01 05:11:45;;;;;;;12.00;5.80;;;9.00;97.30;;;;;;5031749;28;20179;-78
2022/05/01 05:14:11;;;;;;;10.63;4.80;;;9.20;97.30;;;;;;5029817;28;20471;-78
2022/05/01 05:16:36;;;;;;;15.30;5.37;;;9.30;97.30;;;;;;5030013;28;20247;-78
2022/05/01 05:19:02;;;;;;;7.70;4.73;;;9.40;97.30;;;;;;5030230;28;20553;-77
2022/05/01 05:21:28;;;;;;;7.33;4.90;;;9.40;97.30;;;;;;5029958;28;20665;-78
2022/05/01 05:23:55;;;;;;;9.10;4.33;;;9.50;97.30;;;;;;5030657;28;20185;-78
2022/05/01 05:26:21;;;;;;;10.33;5.00;;;9.60;97.30;;;;;;5029783;28;20280;-79
2022/05/01 05:28:46;;;;;;;12.20;5.07;;;9.60;97.30;;;;;;5030054;28;20666;-77
2022/05/01 05:31:12;;;;;;;9.93;4.60;;;9.70;97.30;;;;;;5029696;28;20275;-78
2022/05/01 05:33:38;;;;;;;7.97;4.97;;;9.80;97.30;;;;;;5030212;28;20494;-78
2022/05/01 05:36:03;;;;;;;12.97;5.27;;;9.90;97.30;;;;;;5029562;28;20435;-79
2022/05/01 05:38:29;;;;;;;12.27;5.40;;;10.00;97.30;;;;;;5009553;28;20250;-78
2022/05/01 05:40:54;;;;;;;11.50;5.17;;;10.00;97.30;;;;;;5010050;28;20204;-79
2022/05/01 05:43:20;;;;;;;9.53;4.83;;;10.10;97.30;;;;;;5009631;28;20243;-80
2022/05/01 05:45:45;;;;;;;10.50;5.13;;;10.10;97.30;;;;;;5009838;28;20228;-79
2022/05/01 05:48:11;;;;;;;8.40;5.10;;;10.20;97.30;;;;;;5010050;28;20181;-78
2022/05/01 05:50:36;;;;;;;13.87;5.23;;;10.30;97.30;;;;;;5010268;28;20181;-78
2022/05/01 05:53:03;;;;;;;12.73;5.70;;;10.30;97.30;;;;;;5010159;28;20181;-79
2022/05/01 05:55:33;;;;;;;13.63;5.30;;;10.40;97.30;;;;;;5010119;28;20197;-78
2022/05/01 05:58:00;;;;;;;10.10;5.13;;;10.50;97.30;;;;;;5011451;28;20412;-79
2022/05/01 06:00:26;;;;;;;9.97;4.57;;;10.70;97.30;;;;;;5009712;28;20478;-79
2022/05/01 06:02:52;;;;;;;10.80;5.97;;;10.80;97.30;;;;;;5009859;28;20482;-78
2022/05/01 06:05:17;;;;;;;13.17;6.70;;;10.90;97.30;;;;;;5009804;28;20447;-80
2022/05/01 06:07:43;;;;;;;6.93;4.87;;;11.00;97.30;;;;;;5009462;28;20189;-78
2022/05/01 06:10:09;;;;;;;11.83;5.70;;;11.00;97.30;;;;;;5010363;28;20182;-78
2022/05/01 06:12:44;;;;;;;8.80;5.50;;;11.10;97.30;;;;;;5009917;28;20605;-79
2022/05/01 06:15:10;;;;;;;9.63;5.43;;;11.30;97.30;;;;;;5009724;28;20467;-80
2022/05/01 06:17:37;;;;;;;10.87;5.27;;;11.40;97.30;;;;;;5010167;28;20408;-79
2022/05/01 06:20:03;;;;;;;7.33;4.80;;;11.50;97.30;;;;;;5011410;28;20797;-78
2022/05/01 06:22:30;;;;;;;14.13;5.87;;;11.60;97.30;;;;;;5009288;28;20412;-79
2022/05/01 06:24:55;;;;;;;9.60;5.07;;;11.70;96.40;;;;;;5009420;28;20452;-79
2022/05/01 06:27:21;;;;;;;9.13;5.40;;;11.70;96.70;;;;;;5009745;28;20519;-79
2022/05/01 06:29:47;;;;;;;10.10;5.43;;;11.60;96.20;;;;;;5011033;28;20228;-79
2022/05/01 06:32:17;;;;;;;12.33;5.50;;;11.60;96.40;;;;;;5009617;28;20185;-79
2022/05/01 06:34:44;;;;;;;7.77;4.27;;;11.60;96.20;;;;;;5009714;28;20703;-78
2022/05/01 06:37:09;;;;;;;11.90;6.37;;;11.60;96.10;;;;;;5015514;28;20524;-80
2022/05/01 06:39:35;;;;;;;10.00;4.93;;;11.60;96.50;;;;;;5009041;28;20515;-80
2022/05/01 06:42:01;;;;;;;8.60;5.50;;;11.60;95.70;;;;;;5009798;28;20177;-78
2022/05/01 06:44:26;;;;;;;14.93;6.90;;;11.60;96.00;;;;;;5009588;28;20252;-80
2022/05/01 06:46:52;;;;;;;9.37;5.40;;;11.60;95.70;;;;;;5009926;28;20177;-78
2022/05/01 06:49:17;;;;;;;12.87;5.37;;;11.60;95.90;;;;;;5009679;28;20177;-80
2022/05/01 06:51:44;;;;;;;12.50;6.13;;;11.60;96.30;;;;;;5010200;28;20288;-79
2022/05/01 06:54:10;;;;;;;9.57;5.63;;;11.70;96.50;;;;;;5009997;28;20240;-79
2022/05/01 06:56:35;;;;;;;9.50;5.50;;;11.70;96.10;;;;;;5011824;28;20910;-79
2022/05/01 06:59:02;;;;;;;10.17;5.80;;;11.80;96.10;;;;;;5013348;28;20427;-81
2022/05/01 07:01:27;;;;;;;10.50;5.70;;;11.80;95.80;;;;;;5013742;28;20185;-79
2022/05/01 07:03:53;;;;;;;16.93;5.63;;;11.90;95.60;;;;;;5013698;28;21023;-79
2022/05/01 07:06:18;;;;;;;11.27;5.50;;;11.90;95.30;;;;;;5013365;28;20205;-78
2022/05/01 07:08:44;;;;;;;9.93;5.90;;;12.00;95.70;;;;;;5013868;28;20191;-79
2022/05/01 07:11:10;;;;;;;11.87;5.97;;;11.90;95.40;;;;;;5013864;28;20556;-82
2022/05/01 07:13:36;;;;;;;10.90;5.70;;;11.90;94.90;;;;;;5013590;28;20248;-79
2022/05/01 07:16:02;;;;;;;11.80;5.37;;;12.00;94.80;;;;;;5015398;28;20221;-79
2022/05/01 07:18:27;;;;;;;10.83;5.60;;;12.00;95.00;;;;;;5013718;28;20431;-79
2022/05/01 07:20:53;;;;;;;20.90;6.87;;;12.10;95.00;;;;;;5014196;28;20909;-80
2022/05/01 07:23:21;;;;;;;10.80;6.43;;;12.20;95.10;;;;;;5014672;28;20312;-81
2022/05/01 07:25:47;;;;;;;12.73;5.47;;;12.20;94.90;;;;;;5014381;28;20225;-80
2022/05/01 07:28:13;;;;;;;9.03;5.60;;;12.20;95.30;;;;;;5014392;28;20427;-81
2022/05/01 07:30:39;;;;;;;8.67;5.90;;;12.30;94.00;;;;;;5014856;28;20427;-79
2022/05/01 07:33:04;;;;;;;11.70;5.10;;;12.40;93.90;;;;;;5014923;28;20181;-79
2022/05/01 07:35:30;;;;;;;10.63;5.90;;;12.50;94.30;;;;;;5015654;28;20299;-82
2022/05/01 07:37:55;;;;;;;11.77;6.20;;;12.60;94.20;;;;;;5031001;28;20169;-81
2022/05/01 07:40:24;;;;;;;13.77;6.20;;;12.60;93.80;;;;;;5036310;28;20179;-79
2022/05/01 07:42:51;;;;;;;12.87;7.30;;;12.70;93.40;;;;;;5037309;28;20690;-79
2022/05/01 07:45:17;;;;;;;16.00;6.47;;;12.70;92.90;;;;;;5034348;28;20441;-80
2022/05/01 07:47:42;;;;;;;9.33;5.23;;;12.80;92.40;;;;;;5035078;28;20772;-81
2022/05/01 07:50:08;;;;;;;14.47;5.20;;;12.80;92.90;;;;;;5036384;28;20488;-79
2022/05/01 07:52:34;;;;;;;9.43;5.87;;;12.90;92.30;;;;;;5036859;28;20711;-79
2022/05/01 07:55:01;;;;;;;17.50;6.30;;;13.00;92.30;;;;;;5036825;28;20467;-81
2022/05/01 07:57:27;;;;;;;9.50;5.80;;;13.20;92.50;;;;;;5037913;28;20412;-80
2022/05/01 07:59:54;;;;;;;8.73;5.40;;;13.50;91.80;;;;;;5038157;28;20447;-81
2022/05/01 08:02:20;;;;;;;9.00;5.27;;;13.70;91.70;;;;;;5040584;28;20410;-80
2022/05/01 08:04:46;;;;;;;9.33;5.37;;;13.90;91.30;;;;;;5037769;28;20801;-81
2022/05/01 08:07:12;;;;;;;10.27;5.70;;;14.00;89.50;;;;;;5041424;28;20486;-82
2022/05/01 08:09:37;;;;;;;12.17;6.07;;;14.00;88.80;;;;;;5039835;28;20177;-81
2022/05/01 08:12:03;;;;;;;13.00;6.70;;;14.10;90.20;;;;;;5040104;28;20199;-79
2022/05/01 08:14:29;;;;;;;13.67;6.23;;;14.20;89.90;;;;;;5038190;28;20227;-80
2022/05/01 08:16:55;;;;;;;9.87;5.17;;;14.30;88.80;;;;;;5039676;28;20789;-79
2022/05/01 08:22:05;;;;;;;10.43;6.07;;;14.50;89.20;;;;;;5039750;28;20238;-81
2022/05/01 08:24:32;;;;;;;11.47;5.37;;;14.50;88.30;;;;;;5037353;28;20465;-79
2022/05/01 08:27:04;;;;;;;13.90;5.73;;;14.50;88.30;;;;;;5039270;28;21105;-80
2022/05/01 08:29:31;;;;;;;12.43;6.83;;;14.60;89.00;;;;;;5041211;28;20502;-82
2022/05/01 08:31:58;;;;;;;17.53;7.00;;;14.60;88.60;;;;;;5038779;28;20448;-81
2022/05/01 08:34:23;;;;;;;9.20;6.27;;;14.80;87.00;;;;;;5041479;28;20459;-81
2022/05/01 08:36:49;;;;;;;15.27;6.80;;;14.80;87.20;;;;;;5036008;28;20443;-80
2022/05/01 08:39:14;;;;;;;12.20;6.27;;;14.90;87.60;;;;;;5021026;28;20651;-80
2022/05/01 08:41:40;;;;;;;13.77;6.83;;;15.00;87.90;;;;;;5017830;28;20189;-84
2022/05/01 08:44:13;;;;;;;16.30;7.07;;;15.00;87.50;;;;;;5017451;28;20192;-82
2022/05/01 08:46:57;;;;;;;10.60;6.50;;;15.20;88.30;;;;;;5017404;28;20601;-80
2022/05/01 08:49:24;;;;;;;13.53;6.70;;;15.20;87.50;;;;;;5020385;28;20424;-81
2022/05/01 08:51:52;;;;;;;8.93;5.80;;;15.40;87.90;;;;;;5019327;28;20974;-81
2022/05/01 08:54:18;;;;;;;14.30;6.47;;;15.60;87.70;;;;;;5020079;28;20475;-82
2022/05/01 08:56:45;;;;;;;14.23;7.57;;;15.60;86.40;;;;;;5021562;28;20424;-80
2022/05/01 08:59:14;;;;;;;13.87;7.60;;;15.70;86.30;;;;;;5024108;28;20416;-84
2022/05/01 09:01:41;;;;;;;14.83;6.50;;;15.70;86.00;;;;;;5023767;28;20452;-83
2022/05/01 09:04:09;;;;;;;10.33;6.70;;;15.80;85.80;;;;;;5023279;28;20446;-83
2022/05/01 09:06:36;;;;;;;13.90;6.40;;;15.90;86.00;;;;;;5027446;28;20416;-83
2022/05/01 09:09:08;;;;;;;18.43;7.30;;;16.00;86.10;;;;;;5026011;28;20577;-82
2022/05/01 09:14:24;;;;;;;11.07;6.27;;;16.30;85.70;;;;;;5024968;28;20517;-81
2022/05/01 09:17:09;;;;;;;12.07;7.10;;;16.30;85.40;;;;;;5025452;28;20424;-82
2022/05/01 09:19:34;;;;;;;12.27;7.03;;;16.50;85.30;;;;;;5020804;28;20420;-82
2022/05/01 09:22:00;;;;;;;19.63;7.20;;;16.50;84.40;;;;;;5020556;28;20428;-82
2022/05/01 09:24:28;;;;;;;11.30;7.03;;;16.50;84.50;;;;;;5018816;28;20197;-81
2022/05/01 09:26:55;;;;;;;12.63;8.40;;;16.50;84.60;;;;;;5021963;28;20420;-81
2022/05/01 09:29:22;;;;;;;12.97;7.30;;;16.60;83.50;;;;;;5024542;28;20455;-83
2022/05/01 09:31:48;;;;;;;19.80;7.67;;;16.80;83.30;;;;;;5024170;28;20444;-83
2022/05/01 09:34:18;;;;;;;17.33;8.10;;;16.80;83.90;;;;;;5024229;28;20494;-82
2022/05/01 09:36:44;;;;;;;11.80;7.00;;;16.90;82.80;;;;;;5027419;28;20411;-81
2022/05/01 09:39:10;;;;;;;10.37;6.27;;;16.90;82.60;;;;;;5045946;28;20419;-83
2022/05/01 09:41:42;;;;;;;15.80;7.67;;;16.80;83.80;;;;;;5043249;28;20318;-84
2022/05/01 09:44:15;;;;;;;14.43;7.13;;;16.60;83.30;;;;;;5043466;28;20181;-81
2022/05/01 09:46:40;;;;;;;22.77;7.43;;;16.60;83.40;;;;;;5042245;28;20415;-84
2022/05/01 09:49:09;;;;;;;13.87;8.10;;;16.60;83.50;;;;;;5041218;28;20430;-82
2022/05/01 09:51:38;;;;;;;15.93;9.50;;;16.60;84.00;;;;;;5046149;28;20214;-84
2022/05/01 09:54:07;;;;;;;12.47;7.83;;;16.60;82.20;;;;;;5044958;28;20463;-81
2022/05/01 09:56:44;;;;;;;15.30;7.43;;;16.60;83.00;;;;;;5042784;28;20407;-82
2022/05/01 09:59:10;;;;;;;15.73;9.40;;;16.70;82.50;;;;;;5044803;28;20454;-83
2022/05/01 10:01:36;;;;;;;15.10;8.13;;;16.90;83.30;;;;;;5044124;28;20415;-82
2022/05/01 10:04:03;;;;;;;11.97;7.50;;;17.10;82.20;;;;;;5044209;28;20426;-82
2022/05/01 10:06:31;;;;;;;13.90;8.10;;;17.30;81.50;;;;;;5042369;28;20423;-82
2022/05/01 10:08:57;;;;;;;16.93;9.80;;;17.40;80.30;;;;;;5044703;28;20422;-81
2022/05/01 10:11:24;;;;;;;10.30;7.67;;;17.50;81.90;;;;;;5043970;28;20415;-83
2022/05/01 10:13:51;;;;;;;14.60;7.70;;;17.80;80.50;;;;;;5044499;28;20546;-85
2022/05/01 10:16:17;;;;;;;10.70;6.60;;;17.80;81.00;;;;;;5043965;28;21031;-82
2022/05/01 10:18:45;;;;;;;15.67;7.50;;;18.00;81.20;;;;;;5044226;28;20423;-82
2022/05/01 10:21:12;;;;;;;14.13;8.87;;;18.10;80.50;;;;;;5044190;28;20176;-81
2022/05/01 10:23:40;;;;;;;14.83;8.47;;;18.10;80.60;;;;;;5046152;28;20419;-82
2022/05/01 10:26:20;;;;;;;11.80;8.63;;;18.20;80.80;;;;;;5043938;28;20435;-82
2022/05/01 10:29:04;;;;;;;12.70;8.30;;;18.30;80.60;;;;;;5045088;28;20430;-83
2022/05/01 10:34:49;;;;;;;11.83;7.60;;;18.40;80.30;;;;;;5049048;28;20840;-84
2022/05/01 10:37:40;;;;;;;13.83;7.80;;;18.50;80.40;;;;;;5037088;28;20439;-82
2022/05/01 10:40:06;;;;;;;14.33;8.80;;;18.50;79.20;;;;;;5028206;28;20435;-83
2022/05/01 10:42:33;;;;;;;15.83;9.50;;;18.30;79.70;;;;;;5027999;28;20431;-84
2022/05/01 10:44:59;;;;;;;18.53;9.97;;;18.30;79.90;;;;;;5028264;28;20436;-82
2022/05/01 10:47:37;;;;;;;16.73;9.40;;;18.30;79.80;;;;;;5030840;28;20419;-81
2022/05/01 10:50:11;;;;;;;14.77;8.87;;;18.40;79.40;;;;;;5031835;28;20415;-82
2022/05/01 10:53:08;;;;;;;17.57;10.07;;;18.60;79.80;;;;;;5027976;28;20423;-82
2022/05/01 10:55:52;;;;;;;11.03;7.70;;;18.70;77.30;;;;;;5028918;28;20470;-82
2022/05/01 10:58:26;;;;;;;15.90;9.23;;;18.90;78.80;;;;;;5027811;28;20419;-82
2022/05/01 11:00:53;;;;;;;13.30;8.70;;;19.20;78.40;;;;;;5028260;28;20423;-83
2022/05/01 11:03:30;;;;;;;18.23;8.50;;;19.30;78.70;;;;;;5030583;28;20414;-83
2022/05/01 11:06:02;;;;;;;18.53;8.57;;;19.40;78.00;;;;;;5028956;28;20530;-83
2022/05/01 11:08:33;;;;;;;15.47;9.07;;;19.30;77.80;;;;;;5029049;28;20420;-83
2022/05/01 11:11:00;;;;;;;13.83;9.80;;;19.10;77.10;;;;;;5029900;28;20416;-83
2022/05/01 11:13:34;;;;;;;12.87;7.80;;;19.00;78.60;;;;;;5029328;28;20463;-83
2022/05/01 11:16:00;;;;;;;11.13;7.47;;;19.10;78.80;;;;;;5027743;28;20512;-82
2022/05/01 11:18:50;;;;;;;19.70;7.67;;;19.20;78.10;;;;;;5027360;28;20487;-83
2022/05/01 11:21:19;;;;;;;13.47;7.30;;;19.30;77.30;;;;;;5022762;28;20416;-83
2022/05/01 11:23:45;;;;;;;11.60;7.80;;;19.30;78.20;;;;;;5025995;28;20797;-83
2022/05/01 11:26:13;;;;;;;13.00;7.63;;;19.40;78.40;;;;;;5025484;28;20450;-84
2022/05/01 11:28:44;;;;;;;14.67;8.73;;;19.50;78.50;;;;;;5025969;28;20873;-82
2022/05/01 11:31:37;;;;;;;13.93;7.57;;;19.70;77.80;;;;;;5026509;28;20527;-83
2022/05/01 11:34:19;;;;;;;16.73;7.67;;;19.80;77.20;;;;;;5025253;28;20467;-83
2022/05/01 11:36:57;;;;;;;13.87;8.07;;;19.60;76.20;;;;;;5031449;28;20785;-83
2022/05/01 11:39:45;;;;;;;15.90;7.63;;;19.70;76.10;;;;;;5045791;28;20430;-83
2022/05/01 11:42:26;;;;;;;20.50;8.03;;;19.80;77.30;;;;;;5045362;28;20925;-83
2022/05/01 11:44:54;;;;;;;11.47;8.20;;;20.10;76.40;;;;;;5045536;28;20465;-82
2022/05/01 11:47:24;;;;;;;11.87;7.40;;;20.20;76.70;;;;;;5046231;28;20530;-84
2022/05/01 11:49:50;;;;;;;15.13;8.10;;;20.40;75.50;;;;;;5046484;28;20412;-83
2022/05/01 11:52:16;;;;;;;12.90;6.67;;;20.60;76.00;;;;;;5045632;28;20430;-83
2022/05/01 11:54:57;;;;;;;13.17;6.80;;;20.70;75.10;;;;;;5046062;28;20467;-82
2022/05/01 12:03:13;;;;;;;19.47;6.50;;;20.90;75.00;;;;;;5047020;28;20418;-82
2022/05/01 12:05:46;;;;;;;10.97;6.57;;;21.00;74.80;;;;;;5046112;28;20493;-82
2022/05/01 12:08:13;;;;;;;12.37;6.80;;;21.20;75.10;;;;;;5045812;28;20423;-83
2022/05/01 12:10:43;;;;;;;8.97;5.70;;;21.20;73.90;;;;;;5046051;28;20412;-82
2022/05/01 12:13:23;;;;;;;11.07;6.10;;;21.50;73.20;;;;;;5044982;28;20463;-83
2022/05/01 12:15:50;;;;;;;12.57;6.10;;;21.70;73.20;;;;;;5046949;28;20458;-81
2022/05/01 12:18:17;;;;;;;9.17;6.00;;;21.80;72.20;;;;;;5045717;28;20510;-83
2022/05/01 12:20:43;;;;;;;12.60;7.03;;;21.80;71.60;;;;;;5045938;28;20918;-83
2022/05/01 12:23:20;;;;;;;12.07;6.40;;;21.60;72.00;;;;;;5045283;28;20526;-83
2022/05/01 12:25:49;;;;;;;9.27;6.17;;;21.50;73.50;;;;;;5046291;28;20192;-83
2022/05/01 12:28:17;;;;;;;12.57;6.30;;;21.70;71.60;;;;;;5045016;28;20412;-83
2022/05/01 12:30:42;;;;;;;9.60;6.33;;;21.80;71.30;;;;;;5044884;28;20434;-84
2022/05/01 12:33:21;;;;;;;10.87;6.40;;;21.90;72.00;;;;;;5044246;28;20400;-82
2022/05/01 12:36:05;;;;;;;10.17;6.47;;;22.00;72.00;;;;;;5044538;28;20224;-83
2022/05/01 12:38:30;;;;;;;10.90;7.23;;;22.10;70.20;;;;;;5024619;28;20416;-84
2022/05/01 12:44:00;;;;;;;10.40;6.40;;;22.10;71.80;;;;;;5025547;28;20187;-83
2022/05/01 12:46:30;;;;;;;10.63;7.60;;;22.30;72.60;;;;;;5024874;28;20440;-82
2022/05/01 12:48:58;;;;;;;10.80;6.70;;;22.50;70.00;;;;;;5024332;28;20470;-83
2022/05/01 12:51:46;;;;;;;12.17;5.40;;;22.50;68.50;;;;;;5023469;28;20408;-83
2022/05/01 12:54:19;;;;;;;13.23;5.60;;;22.60;70.10;;;;;;5025471;28;20463;-84
2022/05/01 12:56:45;;;;;;;9.30;5.50;;;22.60;70.30;;;;;;5025181;28;20419;-84
2022/05/01 12:59:31;;;;;;;10.33;6.33;;;22.70;70.60;;;;;;5026626;28;20403;-82
2022/05/01 13:01:58;;;;;;;9.97;6.10;;;22.70;71.30;;;;;;5026539;28;20483;-84
2022/05/01 13:04:29;;;;;;;7.90;5.63;;;22.60;69.40;;;;;;5026859;28;20915;-83
2022/05/01 13:06:55;;;;;;;10.60;5.37;;;22.90;69.40;;;;;;5026597;28;20481;-83
2022/05/01 13:09:22;;;;;;;9.67;5.83;;;23.00;69.00;;;;;;5026953;28;20423;-81
2022/05/01 13:12:26;;;;;;;10.27;6.80;;;22.80;67.60;;;;;;5027051;28;20847;-82
2022/05/01 13:15:02;;;;;;;9.47;5.90;;;22.80;69.30;;;;;;5024417;28;21108;-82
2022/05/01 13:17:28;;;;;;;10.30;6.10;;;22.80;68.10;;;;;;5026584;28;20400;-82
2022/05/01 13:19:56;;;;;;;11.13;6.10;;;22.80;67.90;;;;;;5026942;28;20937;-82
2022/05/01 13:22:21;;;;;;;7.40;5.80;;;22.90;67.80;;;;;;5026935;28;20682;-83
2022/05/01 13:24:53;;;;;;;10.70;6.03;;;23.00;68.70;;;;;;5026139;28;20443;-82